Time;durP1;ratioP1;P1;durP2;ratioP2;P2;SDS_P1;SDS_P2;PMS_P1;PMS_P2;Temp;Humidity;BMP_temperature;BMP_pressure;BME280_temperature;BME280_humidity;BME280_pressure;Samples;Min_cycle;Max_cycle;Signal;HPM_P1;HPM_P2
2023/09/08 00:00:35;;;;;;;0.45;0.45;;;;;;;20.80;40.54;101697.19;5028447;28;20449;-80
2023/09/08 00:03:04;;;;;;;0.30;0.30;;;;;;;20.81;40.47;101702.38;5026804;28;20748;-84
2023/09/08 00:05:33;;;;;;;0.40;0.40;;;;;;;20.74;40.64;101698.03;5026127;28;20401;-83
2023/09/08 00:07:58;;;;;;;0.40;0.40;;;;;;;20.71;40.85;101706.56;5026545;28;20410;-84
2023/09/08 00:10:24;;;;;;;0.20;0.20;;;;;;;20.65;40.81;101692.06;5027021;28;20379;-84
2023/09/08 00:12:49;;;;;;;0.75;0.65;;;;;;;20.53;41.25;101694.56;5027512;28;20458;-82
2023/09/08 00:15:15;;;;;;;0.40;0.40;;;;;;;20.58;41.11;101702.84;5027475;28;20419;-82
2023/09/08 00:17:44;;;;;;;0.30;0.30;;;;;;;20.61;41.01;101704.31;5029114;28;20955;-83
2023/09/08 00:20:10;;;;;;;0.30;0.30;;;;;;;20.48;41.32;101699.75;5027158;28;20953;-83
2023/09/08 00:22:40;;;;;;;0.25;0.25;;;;;;;20.37;41.64;101697.72;5027438;28;20460;-84
2023/09/08 00:25:06;;;;;;;0.17;0.17;;;;;;;20.34;41.63;101703.53;5022932;28;20444;-80
2023/09/08 00:27:44;;;;;;;0.20;0.20;;;;;;;20.37;41.66;101705.81;5028591;28;20386;-83
2023/09/08 00:30:13;;;;;;;0.30;0.30;;;;;;;20.43;41.33;101708.47;5027272;28;20395;-83
2023/09/08 00:32:38;;;;;;;0.30;0.30;;;;;;;20.44;41.49;101712.81;5028130;28;20435;-82
2023/09/08 00:35:10;;;;;;;0.50;0.50;;;;;;;20.49;41.16;101709.50;5027809;28;20402;-83
2023/09/08 00:37:55;;;;;;;1.00;0.88;;;;;;;20.54;41.00;101703.47;5028969;28;20944;-80
2023/09/08 00:40:21;;;;;;;0.20;0.20;;;;;;;20.62;40.82;101698.72;5044881;28;20440;-83
2023/09/08 00:42:47;;;;;;;0.33;0.33;;;;;;;20.65;40.66;101700.13;5044165;28;20454;-82
2023/09/08 00:45:16;;;;;;;0.20;0.20;;;;;;;20.68;40.55;101705.13;5029818;28;20382;-83
2023/09/08 00:47:43;;;;;;;0.30;0.30;;;;;;;20.67;40.53;101702.63;5029645;28;20703;-80
2023/09/08 00:50:15;;;;;;;0.10;0.10;;;;;;;20.65;40.56;101705.53;5028742;28;20390;-82
2023/09/08 00:52:40;;;;;;;0.20;0.20;;;;;;;20.60;40.71;101711.53;5044244;28;20429;-82
2023/09/08 00:55:06;;;;;;;0.10;0.10;;;;;;;20.64;40.54;101705.78;5044702;28;20418;-82
2023/09/08 00:57:32;;;;;;;0.20;0.20;;;;;;;20.71;40.52;101710.09;5046174;28;20397;-81
2023/09/08 00:59:58;;;;;;;0.10;0.10;;;;;;;20.77;40.23;101711.91;5046778;28;20376;-82
2023/09/08 01:04:54;;;;;;;0.10;0.10;;;;;;;20.85;40.19;101712.72;5026343;28;20430;-79
2023/09/08 01:07:20;;;;;;;0.33;0.30;;;;;;;20.82;40.35;101711.28;5027620;28;20410;-81
2023/09/08 01:09:50;;;;;;;0.10;0.10;;;;;;;20.79;40.41;101706.31;5029034;28;20415;-82
2023/09/08 01:12:16;;;;;;;0.20;0.20;;;;;;;20.79;40.49;101709.81;5028023;28;20455;-84
2023/09/08 01:14:42;;;;;;;0.32;0.32;;;;;;;20.79;40.47;101709.81;5029034;28;20490;-84
2023/09/08 01:17:09;;;;;;;0.20;0.20;;;;;;;20.74;40.59;101708.81;5028520;28;20465;-85
2023/09/08 01:19:36;;;;;;;0.10;0.10;;;;;;;20.65;40.83;101702.84;5029219;28;20881;-84
2023/09/08 01:22:29;;;;;;;0.13;0.13;;;;;;;20.62;40.94;101703.28;5029493;28;20400;-84
2023/09/08 01:25:21;;;;;;;0.30;0.30;;;;;;;20.60;41.10;101713.41;5032686;28;20393;-79
2023/09/08 01:27:54;;;;;;;0.20;0.20;;;;;;;20.54;41.25;101706.97;5013740;28;20398;-83
2023/09/08 01:30:23;;;;;;;0.20;0.20;;;;;;;20.41;41.50;101707.84;5032419;28;20398;-82
2023/09/08 01:32:50;;;;;;;0.20;0.20;;;;;;;20.13;42.73;101704.59;5032054;28;20877;-81
2023/09/08 01:35:15;;;;;;;1.10;0.38;;;;;;;19.72;43.78;101709.16;5030617;28;20489;-81
2023/09/08 01:37:46;;;;;;;0.23;0.23;;;;;;;19.62;44.27;101712.25;5032206;28;20386;-81
2023/09/08 01:40:12;;;;;;;0.30;0.30;;;;;;;19.66;44.07;101712.66;5013956;28;20444;-82
2023/09/08 01:42:39;;;;;;;0.20;0.20;;;;;;;19.55;44.43;101715.97;5031697;28;20472;-83
2023/09/08 01:45:10;;;;;;;0.20;0.20;;;;;;;19.52;44.52;101727.13;5014348;28;20398;-78
2023/09/08 01:47:37;;;;;;;0.25;0.22;;;;;;;19.63;44.18;101719.28;5031786;28;20414;-81
2023/09/08 01:50:03;;;;;;;0.32;0.32;;;;;;;19.76;43.62;101718.50;5031645;28;20491;-83
2023/09/08 01:52:29;;;;;;;0.15;0.15;;;;;;;19.79;43.39;101719.94;5031666;28;20836;-81
2023/09/08 01:54:55;;;;;;;0.20;0.20;;;;;;;19.83;43.25;101727.41;5030278;28;20410;-82
2023/09/08 01:57:20;;;;;;;0.10;0.10;;;;;;;19.82;43.22;101722.22;5031588;28;20469;-83
2023/09/08 01:59:46;;;;;;;0.20;0.20;;;;;;;19.80;43.35;101719.72;5031391;28;20393;-83
2023/09/08 02:02:11;;;;;;;0.10;0.10;;;;;;;19.77;43.60;101724.69;5031133;28;20880;-80
2023/09/08 02:04:40;;;;;;;0.20;0.20;;;;;;;19.65;43.96;101717.22;5030714;28;20410;-79
2023/09/08 02:07:10;;;;;;;0.20;0.20;;;;;;;19.66;43.94;101729.66;5030356;28;20413;-80
2023/09/08 02:09:37;;;;;;;0.20;0.20;;;;;;;19.61;43.87;101726.75;5040263;28;20390;-83
2023/09/08 02:12:04;;;;;;;0.10;0.10;;;;;;;19.58;44.21;101724.44;5033676;28;20398;-82
2023/09/08 02:14:34;;;;;;;0.20;0.20;;;;;;;19.55;44.21;101722.16;5029312;28;20421;-82
2023/09/08 02:16:59;;;;;;;0.30;0.30;;;;;;;19.43;44.75;101726.50;5030442;28;21478;-82
2023/09/08 02:19:25;;;;;;;0.20;0.20;;;;;;;19.40;44.91;101726.91;5029067;28;20418;-82
2023/09/08 02:21:51;;;;;;;0.20;0.20;;;;;;;19.49;44.34;101723.81;5030486;28;20444;-83
2023/09/08 02:24:17;;;;;;;0.33;0.33;;;;;;;19.43;44.56;101730.03;5030745;28;20383;-79
2023/09/08 02:26:44;;;;;;;0.27;0.27;;;;;;;19.47;44.36;101727.75;5029981;28;20461;-82
2023/09/08 02:29:10;;;;;;;0.20;0.20;;;;;;;19.47;44.52;101733.94;5030127;28;20382;-85
2023/09/08 02:31:36;;;;;;;0.28;0.28;;;;;;;19.52;44.33;101730.66;5029863;28;20382;-79
2023/09/08 02:34:01;;;;;;;0.20;0.20;;;;;;;19.49;44.28;101734.56;5028948;28;20770;-83
2023/09/08 02:36:27;;;;;;;0.90;0.70;;;;;;;19.44;44.43;101722.78;5029750;28;20461;-80
2023/09/08 02:38:55;;;;;;;0.20;0.20;;;;;;;19.49;44.25;101725.69;5030218;28;20765;-81
2023/09/08 02:41:21;;;;;;;0.20;0.20;;;;;;;19.48;44.20;101716.78;5030147;28;20976;-79
2023/09/08 02:43:49;;;;;;;0.20;0.20;;;;;;;19.43;44.49;101727.34;5029955;28;20477;-80
2023/09/08 02:46:15;;;;;;;0.20;0.20;;;;;;;19.49;44.26;101729.19;5030314;28;20378;-80
2023/09/08 02:48:41;;;;;;;0.40;0.40;;;;;;;19.54;44.01;101725.91;5012540;28;20383;-83
2023/09/08 02:51:07;;;;;;;0.20;0.20;;;;;;;19.52;44.09;101721.75;5029448;28;20402;-84
2023/09/08 02:53:33;;;;;;;0.30;0.30;;;;;;;19.52;44.06;101733.34;5029636;28;20390;-83
2023/09/08 02:56:03;;;;;;;0.10;0.10;;;;;;;19.52;43.85;101735.19;5029429;28;20387;-83
2023/09/08 02:58:30;;;;;;;0.13;0.13;;;;;;;19.53;43.84;101728.78;4997055;28;20842;-83
2023/09/08 03:00:56;;;;;;;0.20;0.20;;;;;;;19.49;44.18;101726.50;5028135;28;20927;-84
2023/09/08 03:03:22;;;;;;;0.10;0.10;;;;;;;19.47;44.27;101735.81;4943142;28;2448663;-79
2023/09/08 03:05:54;;;;;;;0.20;0.20;;;;;;;19.40;44.37;101733.09;5030180;28;20394;-82
2023/09/08 03:08:23;;;;;;;0.30;0.30;;;;;;;19.35;44.39;101721.31;5028385;28;20463;-81
2023/09/08 03:10:56;;;;;;;0.40;0.40;;;;;;;19.32;44.62;101735.16;5029057;28;20398;-83
2023/09/08 03:13:22;;;;;;;2.65;0.45;;;;;;;19.20;45.04;101733.06;5011498;28;20394;-84
2023/09/08 03:15:47;;;;;;;0.43;0.43;;;;;;;19.09;45.32;101733.66;5028387;28;20397;-83
2023/09/08 03:18:13;;;;;;;0.30;0.30;;;;;;;19.00;45.64;101735.69;5029136;28;20390;-82
2023/09/08 03:20:40;;;;;;;0.13;0.13;;;;;;;18.98;45.89;101735.06;5029101;28;20398;-84
2023/09/08 03:23:05;;;;;;;0.30;0.30;;;;;;;18.98;45.76;101737.75;5027560;28;20825;-81
2023/09/08 03:25:31;;;;;;;0.22;0.15;;;;;;;18.87;46.22;101733.78;5028217;28;20938;-84
2023/09/08 03:27:59;;;;;;;0.23;0.23;;;;;;;18.83;46.32;101732.50;5027803;28;20741;-85
2023/09/08 03:30:26;;;;;;;0.20;0.10;;;;;;;18.89;46.07;101728.22;5026428;28;20387;-84
2023/09/08 03:32:52;;;;;;;0.23;0.23;;;;;;;18.93;45.92;101734.00;5028457;28;20410;-83
2023/09/08 03:35:20;;;;;;;0.17;0.17;;;;;;;18.91;45.89;101732.34;5028798;28;20487;-84
2023/09/08 03:37:45;;;;;;;0.30;0.30;;;;;;;18.87;45.88;101739.16;5028287;28;20881;-86
2023/09/08 03:40:11;;;;;;;0.20;0.20;;;;;;;18.74;46.32;101739.03;5030549;28;20908;-87
2023/09/08 03:42:36;;;;;;;0.20;0.20;;;;;;;18.72;46.53;101736.53;5030230;28;20398;-84
2023/09/08 03:45:02;;;;;;;0.17;0.17;;;;;;;18.89;46.19;101737.09;5029915;28;20402;-85
2023/09/08 03:47:31;;;;;;;0.50;0.20;;;;;;;18.97;45.89;101730.69;5029504;28;20383;-87
2023/09/08 03:50:01;;;;;;;0.70;0.30;;;;;;;18.80;46.07;101715.91;5017152;28;20384;-86
2023/09/08 03:52:26;;;;;;;0.60;0.30;;;;;;;18.85;46.37;101735.84;5015318;28;20390;-86
2023/09/08 03:54:53;;;;;;;1.15;0.40;;;;;;;18.83;46.36;101732.50;5044708;28;20406;-84
2023/09/08 03:57:19;;;;;;;1.02;0.50;;;;;;;18.82;46.44;101730.84;5008540;28;20767;-84
2023/09/08 03:59:45;;;;;;;0.38;0.20;;;;;;;18.86;46.31;101737.47;5010453;28;20388;-84
2023/09/08 04:02:10;;;;;;;0.20;0.20;;;;;;;18.92;46.18;101735.84;5027343;28;20433;-85
2023/09/08 04:04:36;;;;;;;0.20;0.20;;;;;;;18.96;45.78;101738.97;5027800;28;20911;-86
2023/09/08 04:07:02;;;;;;;0.25;0.25;;;;;;;18.99;45.67;101730.50;5026276;28;20497;-83
2023/09/08 04:09:28;;;;;;;0.20;0.20;;;;;;;18.86;46.37;101740.16;5025751;28;20380;-86
2023/09/08 04:11:54;;;;;;;0.20;0.20;;;;;;;18.68;46.86;101745.22;5036043;28;20454;-81
2023/09/08 04:14:21;;;;;;;0.30;0.30;;;;;;;18.60;47.00;101732.78;5026136;28;20920;-83
2023/09/08 04:16:46;;;;;;;0.20;0.20;;;;;;;18.60;47.08;101738.16;5014860;28;20554;-81
2023/09/08 04:19:12;;;;;;;0.20;0.20;;;;;;;18.63;46.88;101739.59;5015683;28;20473;-83
2023/09/08 04:21:39;;;;;;;0.35;0.30;;;;;;;18.68;46.78;101740.66;5027791;28;20935;-83
2023/09/08 04:24:06;;;;;;;0.10;0.10;;;;;;;18.72;46.75;101741.91;5027431;28;20391;-84
2023/09/08 04:26:33;;;;;;;0.30;0.30;;;;;;;18.66;46.87;101737.34;5011605;28;20510;-81
2023/09/08 04:29:01;;;;;;;0.52;0.52;;;;;;;18.67;46.77;101741.72;5030770;28;20493;-82
2023/09/08 04:31:27;;;;;;;0.10;0.10;;;;;;;18.67;46.74;101743.53;5028101;28;20398;-84
2023/09/08 04:33:53;;;;;;;0.13;0.13;;;;;;;18.67;46.85;101738.19;5027263;28;20410;-81
2023/09/08 04:36:22;;;;;;;0.40;0.40;;;;;;;18.79;46.68;101744.66;5010673;28;20998;-82
2023/09/08 04:38:47;;;;;;;0.20;0.20;;;;;;;18.90;46.38;101745.97;5005493;28;20396;-80
2023/09/08 04:41:13;;;;;;;0.40;0.40;;;;;;;18.93;46.33;101744.75;4992062;28;20404;-81
2023/09/08 04:43:38;;;;;;;0.40;0.40;;;;;;;18.98;46.25;101745.81;5026580;28;20418;-79
2023/09/08 04:46:04;;;;;;;0.70;0.40;;;;;;;18.90;46.52;101744.09;5026872;28;20390;-83
2023/09/08 04:48:31;;;;;;;0.30;0.30;;;;;;;18.84;46.96;101747.59;5017114;28;20393;-81
2023/09/08 04:50:57;;;;;;;0.40;0.40;;;;;;;18.91;46.67;101745.78;5028588;28;20912;-82
2023/09/08 04:53:22;;;;;;;0.20;0.20;;;;;;;19.04;46.68;101752.22;5030059;28;20404;-81
2023/09/08 04:55:48;;;;;;;0.30;0.30;;;;;;;19.21;46.29;101756.22;5045640;28;20382;-82
2023/09/08 04:58:13;;;;;;;0.20;0.20;;;;;;;19.32;46.06;101753.97;5032959;28;20387;-81
2023/09/08 05:00:41;;;;;;;0.40;0.40;;;;;;;19.31;45.92;101747.78;5033402;28;20386;-84
2023/09/08 05:03:08;;;;;;;0.30;0.30;;;;;;;19.21;46.28;101745.47;5033093;28;20412;-82
2023/09/08 05:05:33;;;;;;;0.63;0.63;;;;;;;19.24;46.75;101750.44;5033728;28;20485;-80
2023/09/08 05:07:59;;;;;;;2.90;1.10;;;;;;;19.32;46.56;101751.28;5033100;28;20378;-81
2023/09/08 05:10:24;;;;;;;0.30;0.30;;;;;;;19.46;46.33;101758.34;5033221;28;20507;-81
2023/09/08 05:12:51;;;;;;;0.50;0.50;;;;;;;19.52;46.51;101762.06;5032238;28;20378;-81
2023/09/08 05:15:17;;;;;;;0.60;0.60;;;;;;;19.64;46.29;101763.13;5015209;28;20939;-82
2023/09/08 05:17:43;;;;;;;0.97;0.87;;;;;;;19.72;45.98;101757.56;5032253;28;20386;-80
2023/09/08 05:20:09;;;;;;;0.50;0.50;;;;;;;19.88;45.86;101764.47;5031245;28;20387;-83
2023/09/08 05:22:36;;;;;;;0.20;0.20;;;;;;;20.05;45.57;101756.78;5032387;28;20378;-81
2023/09/08 05:25:02;;;;;;;0.60;0.60;;;;;;;20.10;45.52;101762.38;5032849;28;20889;-80
2023/09/08 05:27:29;;;;;;;0.60;0.60;;;;;;;20.05;45.74;101768.38;5015059;28;20441;-79
2023/09/08 05:29:54;;;;;;;0.55;0.55;;;;;;;20.10;45.65;101762.38;5032989;28;20409;-79
2023/09/08 05:32:21;;;;;;;0.20;0.20;;;;;;;20.18;45.87;101767.53;5032227;28;20752;-80
2023/09/08 05:34:46;;;;;;;0.30;0.30;;;;;;;20.30;45.38;101769.63;5032988;28;20403;-82
2023/09/08 05:37:13;;;;;;;0.17;0.17;;;;;;;20.40;45.23;101773.53;5031536;28;20433;-79
2023/09/08 05:39:58;;;;;;;0.50;0.50;;;;;;;20.41;45.28;101772.50;5032607;28;20869;-80
2023/09/08 05:42:25;;;;;;;0.15;0.15;;;;;;;20.59;45.07;101768.31;5032515;28;20888;-76
2023/09/08 05:44:54;;;;;;;2.30;0.57;;;;;;;20.74;44.92;101770.78;5033247;28;20954;-79
2023/09/08 05:47:20;;;;;;;0.70;0.70;;;;;;;20.89;44.56;101765.16;5032850;28;20386;-84
2023/09/08 05:49:49;;;;;;;0.60;0.60;;;;;;;20.98;44.23;101764.72;5032568;28;20393;-81
2023/09/08 05:52:17;;;;;;;0.60;0.60;;;;;;;21.10;44.24;101764.03;5047965;28;20375;-81
2023/09/08 05:54:43;;;;;;;0.20;0.20;;;;;;;21.25;44.07;101767.28;5030556;28;20497;-83
2023/09/08 05:57:09;;;;;;;0.30;0.30;;;;;;;21.31;44.05;101769.09;5032383;28;20379;-80
2023/09/08 05:59:34;;;;;;;0.20;0.20;;;;;;;21.43;43.67;101761.16;5031710;28;20401;-82
2023/09/08 06:02:00;;;;;;;0.20;0.20;;;;;;;21.52;43.92;101772.56;5032585;28;20470;-84
2023/09/08 06:04:26;;;;;;;0.10;0.10;;;;;;;21.63;43.52;101769.16;5030424;28;21021;-78
2023/09/08 06:06:52;;;;;;;0.20;0.20;;;;;;;21.73;43.36;101779.47;5032081;28;20402;-81
2023/09/08 06:09:17;;;;;;;0.40;0.40;;;;;;;21.82;43.25;101771.94;5033080;28;20383;-84
2023/09/08 06:11:43;;;;;;;0.10;0.10;;;;;;;22.04;43.00;101772.38;5032923;28;20753;-82
2023/09/08 06:14:09;;;;;;;0.30;0.30;;;;;;;22.07;42.96;101764.66;5031886;28;20430;-83
2023/09/08 06:16:35;;;;;;;0.27;0.27;;;;;;;22.07;42.66;101778.16;5043134;28;20395;-82
2023/09/08 06:19:03;;;;;;;1.30;1.00;;;;;;;22.06;42.51;101771.13;5035217;28;20382;-83
2023/09/08 06:21:28;;;;;;;0.20;0.20;;;;;;;22.21;42.47;101783.47;5047157;28;20410;-84
2023/09/08 06:23:55;;;;;;;0.30;0.30;;;;;;;22.21;42.22;101773.47;5032218;28;20382;-83
2023/09/08 06:26:20;;;;;;;0.30;0.30;;;;;;;22.21;42.30;101786.16;5048455;28;20401;-83
2023/09/08 06:28:46;;;;;;;0.20;0.20;;;;;;;22.36;42.35;101780.44;5031326;28;20374;-83
2023/09/08 06:31:14;;;;;;;0.87;0.50;;;;;;;22.44;42.08;101790.97;5032742;28;20893;-82
2023/09/08 06:33:40;;;;;;;0.38;0.38;;;;;;;22.48;42.16;101794.88;5032104;28;20379;-83
2023/09/08 06:36:06;;;;;;;0.40;0.40;;;;;;;22.59;42.02;101791.41;5032314;28;20444;-82
2023/09/08 06:38:33;;;;;;;0.50;0.40;;;;;;;22.71;41.50;101792.34;5032386;28;20390;-82
2023/09/08 06:40:58;;;;;;;0.60;0.60;;;;;;;22.81;41.70;101788.28;5032075;28;20371;-83
2023/09/08 06:43:24;;;;;;;0.20;0.20;;;;;;;22.83;41.46;101795.13;5032374;28;20384;-84
2023/09/08 06:45:49;;;;;;;0.20;0.20;;;;;;;22.99;41.40;101796.38;5045544;28;20408;-82
2023/09/08 06:48:16;;;;;;;0.30;0.30;;;;;;;23.25;41.06;101797.97;5029925;28;20465;-83
2023/09/08 06:50:43;;;;;;;0.13;0.13;;;;;;;23.29;40.80;101793.75;5031461;28;20387;-85
2023/09/08 06:53:12;;;;;;;0.50;0.40;;;;;;;23.42;40.75;101789.19;5028831;28;20401;-81
2023/09/08 06:55:38;;;;;;;0.20;0.20;;;;;;;23.56;40.67;101795.25;5032755;28;20402;-82
2023/09/08 06:58:04;;;;;;;0.60;0.60;;;;;;;23.62;40.74;101799.75;5032080;28;20790;-82
2023/09/08 07:00:30;;;;;;;0.30;0.30;;;;;;;23.70;40.37;101790.47;5028347;28;21165;-82
2023/09/08 07:02:56;;;;;;;0.20;0.20;;;;;;;23.61;40.25;101801.63;5027673;28;20497;-82
2023/09/08 07:05:21;;;;;;;0.30;0.30;;;;;;;23.59;40.30;101789.41;5027809;28;20417;-82
2023/09/08 07:07:48;;;;;;;0.17;0.17;;;;;;;23.89;40.10;101791.25;5029737;28;20440;-84
2023/09/08 07:10:15;;;;;;;1.50;0.93;;;;;;;24.17;39.88;101798.72;5030798;28;20378;-82
2023/09/08 07:12:40;;;;;;;0.30;0.30;;;;;;;24.24;39.42;101786.69;5031449;28;20385;-83
2023/09/08 07:15:08;;;;;;;0.20;0.20;;;;;;;24.28;39.13;101795.16;5031489;28;20402;-84
2023/09/08 07:17:33;;;;;;;0.20;0.20;;;;;;;24.35;39.20;101786.94;5046712;28;20826;-82
2023/09/08 07:19:59;;;;;;;0.50;0.50;;;;;;;24.46;39.24;101779.84;5030939;28;20901;-83
2023/09/08 07:22:26;;;;;;;0.30;0.30;;;;;;;24.58;39.11;101788.84;5031049;28;20417;-83
2023/09/08 07:24:52;;;;;;;0.70;0.40;;;;;;;24.78;38.91;101791.16;5031317;28;20421;-83
2023/09/08 07:27:20;;;;;;;0.20;0.20;;;;;;;24.80;38.76;101781.72;5046264;28;20418;-83
2023/09/08 07:29:49;;;;;;;0.10;0.10;;;;;;;24.89;38.76;101784.06;5031438;28;20458;-83
2023/09/08 07:32:16;;;;;;;0.30;0.30;;;;;;;25.11;38.72;101786.94;5046574;28;20444;-82
2023/09/08 07:34:42;;;;;;;0.57;0.30;;;;;;;25.23;37.93;101786.88;5031069;28;20438;-82
2023/09/08 07:37:07;;;;;;;0.20;0.20;;;;;;;25.26;37.98;101783.72;5030169;28;20418;-83
2023/09/08 07:39:35;;;;;;;0.20;0.20;;;;;;;25.44;38.07;101779.97;5046511;28;20401;-81
2023/09/08 07:42:04;;;;;;;0.40;0.25;;;;;;;25.53;38.33;101781.22;5031100;28;20378;-84
2023/09/08 07:44:31;;;;;;;0.10;0.10;;;;;;;25.59;38.13;101784.84;5029537;28;20394;-83
2023/09/08 07:46:57;;;;;;;0.20;0.20;;;;;;;25.68;37.53;101780.69;5030993;28;20382;-83
2023/09/08 07:49:24;;;;;;;0.30;0.30;;;;;;;25.49;37.77;101774.66;5046937;28;20509;-82
2023/09/08 07:51:49;;;;;;;0.20;0.20;;;;;;;25.78;37.49;101785.47;5029775;28;20422;-82
2023/09/08 07:54:15;;;;;;;0.10;0.10;;;;;;;25.96;37.47;101785.25;5047551;28;20439;-82
2023/09/08 07:56:41;;;;;;;0.20;0.20;;;;;;;26.06;37.35;101779.16;5048112;28;20446;-83
2023/09/08 07:59:07;;;;;;;0.22;0.22;;;;;;;26.14;37.08;101773.28;5048399;28;20411;-82
2023/09/08 08:01:32;;;;;;;0.23;0.23;;;;;;;26.15;36.80;101785.81;5048928;28;20388;-83
2023/09/08 08:03:58;;;;;;;0.28;0.25;;;;;;;26.21;36.72;101779.38;5048975;28;20463;-82
2023/09/08 08:06:26;;;;;;;0.50;0.50;;;;;;;26.27;36.17;101766.69;5048667;28;20438;-83
2023/09/08 08:08:52;;;;;;;0.30;0.30;;;;;;;26.33;36.29;101771.13;5031928;28;20439;-82
2023/09/08 08:11:19;;;;;;;0.37;0.37;;;;;;;26.30;36.49;101771.63;5048352;28;20454;-82
2023/09/08 08:13:47;;;;;;;0.60;0.60;;;;;;;26.43;36.39;101781.31;5031431;28;20388;-82
2023/09/08 08:16:12;;;;;;;0.20;0.20;;;;;;;26.54;36.42;101769.50;5047879;28;20389;-82
2023/09/08 08:18:38;;;;;;;0.20;0.20;;;;;;;26.73;36.02;101772.78;5048610;28;20393;-84
2023/09/08 08:21:04;;;;;;;0.28;0.28;;;;;;;26.87;35.92;101774.03;5056651;28;20452;-82
2023/09/08 08:23:30;;;;;;;0.30;0.20;;;;;;;26.92;35.74;101764.28;5048345;28;20424;-83
2023/09/08 08:25:57;;;;;;;0.20;0.20;;;;;;;26.99;35.74;101762.19;5029226;28;20464;-82
2023/09/08 08:28:24;;;;;;;0.10;0.10;;;;;;;27.07;35.64;101761.75;5029113;28;20462;-83
2023/09/08 08:30:51;;;;;;;0.20;0.20;;;;;;;27.12;35.44;101761.81;5029318;28;20405;-81
2023/09/08 08:33:17;;;;;;;0.22;0.22;;;;;;;27.13;34.96;101774.34;5032664;28;20390;-84
2023/09/08 08:35:53;;;;;;;0.40;0.40;;;;;;;27.20;35.41;101766.78;5033429;28;20478;-84
2023/09/08 08:38:19;;;;;;;0.22;0.22;;;;;;;27.33;35.19;101762.84;5033376;28;20378;-81
2023/09/08 08:40:45;;;;;;;0.20;0.20;;;;;;;27.25;34.81;101757.88;5033554;28;20428;-83
2023/09/08 08:43:12;;;;;;;0.20;0.20;;;;;;;27.41;34.83;101761.59;5034606;28;20393;-84
2023/09/08 08:45:41;;;;;;;0.10;0.10;;;;;;;27.43;34.80;101754.81;5017141;28;20394;-82
2023/09/08 08:48:08;;;;;;;0.10;0.10;;;;;;;27.58;34.88;101764.19;5034702;28;20386;-82
2023/09/08 08:50:34;;;;;;;0.10;0.10;;;;;;;27.53;34.27;101748.63;5033241;28;20393;-83
2023/09/08 08:53:02;;;;;;;0.20;0.20;;;;;;;27.60;34.07;101756.56;5049049;28;20382;-81
2023/09/08 08:55:30;;;;;;;0.40;0.40;;;;;;;27.74;34.27;101744.16;5033493;28;20496;-83
2023/09/08 08:58:04;;;;;;;0.30;0.30;;;;;;;27.80;33.97;101756.75;5033034;28;20488;-81
2023/09/08 09:00:33;;;;;;;0.20;0.20;;;;;;;27.83;34.15;101750.78;5032274;28;20436;-83
2023/09/08 09:03:00;;;;;;;0.17;0.17;;;;;;;27.85;33.72;101761.41;5017057;28;20463;-83
2023/09/08 09:05:26;;;;;;;0.20;0.20;;;;;;;27.79;33.95;101748.84;5033531;28;20394;-82
2023/09/08 09:07:53;;;;;;;0.20;0.20;;;;;;;27.84;34.01;101755.16;5016234;28;20391;-83
2023/09/08 09:10:19;;;;;;;0.20;0.20;;;;;;;27.93;33.89;101746.50;5016084;28;20398;-84
2023/09/08 09:12:45;;;;;;;0.20;0.20;;;;;;;28.09;33.63;101742.81;5031791;28;20773;-83
2023/09/08 09:15:12;;;;;;;0.50;0.50;;;;;;;28.02;33.42;101740.31;5033405;28;20989;-82
2023/09/08 09:17:38;;;;;;;0.60;0.60;;;;;;;28.10;33.27;101741.72;5032060;28;20386;-83
2023/09/08 09:20:20;;;;;;;0.20;0.20;;;;;;;28.12;33.51;101733.28;5033494;28;20389;-83
2023/09/08 09:22:46;;;;;;;0.20;0.20;;;;;;;28.20;33.40;101741.78;5033230;28;20820;-81
2023/09/08 09:25:27;;;;;;;0.20;0.20;;;;;;;28.10;33.37;101738.19;5010804;28;20400;-83
2023/09/08 09:27:54;;;;;;;0.35;0.35;;;;;;;28.16;33.39;101737.13;5011315;28;20396;-82
2023/09/08 09:30:23;;;;;;;0.70;0.68;;;;;;;28.19;33.23;101728.41;4995055;28;20399;-84
2023/09/08 09:32:58;;;;;;;0.40;0.40;;;;;;;28.06;32.79;101728.91;5011184;28;20384;-82
2023/09/08 09:35:49;;;;;;;0.20;0.20;;;;;;;28.25;33.09;101732.00;4995923;28;20458;-83
2023/09/08 09:38:16;;;;;;;0.20;0.20;;;;;;;28.22;33.04;101717.00;4994519;28;20404;-83
2023/09/08 09:40:42;;;;;;;0.22;0.22;;;;;;;28.26;32.93;101714.56;5010973;28;20494;-81
2023/09/08 09:43:11;;;;;;;0.30;0.30;;;;;;;28.41;32.92;101707.28;5010429;28;20475;-82
2023/09/08 09:45:39;;;;;;;0.30;0.30;;;;;;;28.55;33.01;101704.09;5011126;28;20423;-82
2023/09/08 09:48:06;;;;;;;0.10;0.10;;;;;;;28.61;32.77;101708.47;4978644;28;20395;-81
2023/09/08 09:50:34;;;;;;;0.30;0.30;;;;;;;28.58;32.93;101711.75;5011187;28;20479;-81
2023/09/08 09:53:07;;;;;;;0.40;0.40;;;;;;;28.57;32.53;101702.72;4994441;28;20531;-82
2023/09/08 09:55:36;;;;;;;0.40;0.40;;;;;;;28.65;32.30;101701.41;4994721;28;20474;-82
2023/09/08 09:58:03;;;;;;;0.20;0.20;;;;;;;28.76;32.69;101694.06;4994211;28;20474;-82
2023/09/08 10:00:33;;;;;;;0.50;0.40;;;;;;;28.89;32.61;101687.25;4994692;28;20446;-82
2023/09/08 10:02:59;;;;;;;0.40;0.40;;;;;;;28.98;32.63;101693.84;5017880;28;20495;-82
2023/09/08 10:05:26;;;;;;;0.30;0.30;;;;;;;28.95;32.51;101681.53;5015187;28;20449;-83
2023/09/08 10:07:52;;;;;;;0.40;0.40;;;;;;;28.90;32.24;101687.00;5010233;28;20395;-82
2023/09/08 10:10:18;;;;;;;0.30;0.30;;;;;;;29.01;32.13;101678.81;4994559;28;20400;-82
2023/09/08 10:12:45;;;;;;;0.50;0.50;;;;;;;29.10;32.01;101690.81;4994554;28;20490;-82
2023/09/08 10:15:12;;;;;;;0.20;0.20;;;;;;;29.02;31.97;101678.53;4977472;28;20408;-81
2023/09/08 10:17:40;;;;;;;0.30;0.30;;;;;;;29.05;31.77;101680.75;5010204;28;20388;-83
2023/09/08 10:20:11;;;;;;;0.20;0.20;;;;;;;29.17;32.04;101667.69;4993536;28;20403;-81
2023/09/08 10:22:48;;;;;;;0.40;0.40;;;;;;;29.09;32.10;101672.81;4994553;28;20458;-84
2023/09/08 10:25:16;;;;;;;0.55;0.55;;;;;;;29.07;32.09;101672.28;4995512;28;20467;-81
2023/09/08 10:27:43;;;;;;;0.30;0.30;;;;;;;29.14;32.22;101667.38;4993375;28;20893;-82
2023/09/08 10:30:09;;;;;;;0.30;0.30;;;;;;;29.09;31.91;101661.91;4974970;28;20389;-83
2023/09/08 10:32:41;;;;;;;0.30;0.30;;;;;;;29.03;31.83;101663.81;5007520;28;21094;-83
2023/09/08 10:35:07;;;;;;;0.50;0.50;;;;;;;29.01;32.13;101654.25;5008138;28;20470;-83
2023/09/08 10:37:32;;;;;;;0.32;0.32;;;;;;;29.15;31.82;101658.09;5009669;28;20474;-82
2023/09/08 10:40:20;;;;;;;0.20;0.20;;;;;;;29.16;31.84;101651.56;5030994;28;20414;-82
2023/09/08 10:42:47;;;;;;;0.20;0.20;;;;;;;29.19;32.13;101644.72;5047675;28;20390;-82
2023/09/08 10:45:20;;;;;;;0.32;0.32;;;;;;;29.29;31.96;101653.75;5030581;28;20477;-84
2023/09/08 10:47:45;;;;;;;0.30;0.30;;;;;;;29.29;31.98;101648.28;5033227;28;20409;-83
2023/09/08 10:50:47;;;;;;;0.22;0.22;;;;;;;29.39;31.68;101644.75;5033322;28;20379;-82
2023/09/08 10:53:19;;;;;;;0.20;0.20;;;;;;;29.35;31.22;101639.00;4990794;28;20433;-80
2023/09/08 10:55:53;;;;;;;0.50;0.50;;;;;;;29.27;31.39;101636.81;5023873;28;20410;-82
2023/09/08 10:58:42;;;;;;;0.22;0.22;;;;;;;29.41;31.54;101633.53;5032112;28;20393;-81
2023/09/08 11:01:13;;;;;;;0.50;0.50;;;;;;;29.35;31.25;101639.00;5014777;28;20441;-79
2023/09/08 11:03:41;;;;;;;0.38;0.38;;;;;;;29.39;31.20;101642.00;5030464;28;20442;-84
2023/09/08 11:06:11;;;;;;;0.30;0.30;;;;;;;29.46;31.08;101634.34;5032856;28;20943;-83
2023/09/08 11:08:44;;;;;;;0.90;0.60;;;;;;;29.55;31.23;101621.78;5033102;28;20817;-83
2023/09/08 11:11:13;;;;;;;0.60;0.40;;;;;;;29.73;30.82;101633.22;5035381;28;20386;-83
2023/09/08 11:13:40;;;;;;;0.30;0.30;;;;;;;29.69;30.86;101626.66;5032037;28;20390;-82
2023/09/08 11:16:06;;;;;;;0.30;0.30;;;;;;;29.69;31.09;101618.44;5032206;28;20379;-83
2023/09/08 11:18:35;;;;;;;0.50;0.50;;;;;;;29.66;31.29;101605.38;5013782;28;20397;-82
2023/09/08 11:21:07;;;;;;;0.40;0.40;;;;;;;29.72;31.27;101610.50;5032311;28;20398;-82
2023/09/08 11:23:33;;;;;;;0.30;0.30;;;;;;;29.73;31.24;101603.16;5030637;28;20758;-81
2023/09/08 11:26:00;;;;;;;0.20;0.20;;;;;;;29.76;30.91;101605.34;5030118;28;20390;-83
2023/09/08 11:28:28;;;;;;;0.40;0.40;;;;;;;29.78;30.78;101597.69;5031854;28;20386;-82